Time;durP1;ratioP1;P1;durP2;ratioP2;P2;SDS_P1;SDS_P2;PMS_P1;PMS_P2;Temp;Humidity;BMP_temperature;BMP_pressure;BME280_temperature;BME280_humidity;BME280_pressure;Samples;Min_cycle;Max_cycle;Signal;HPM_P1;HPM_P2
2023/11/04 00:02:09;;;;;;;;;;;;;;;6.12;100.00;98144.09;5008088;28;19921;-84
2023/11/04 00:04:45;;;;;;;;;;;;;;;6.02;100.00;98146.28;5029585;28;20401;-84
2023/11/04 00:07:15;;;;;;;;;;;;;;;6.07;100.00;98143.44;5014311;28;19925;-83
2023/11/04 00:09:43;;;;;;;;;;;;;;;6.02;100.00;98146.28;5012710;28;19948;-83
2023/11/04 00:12:12;;;;;;;;;;;;;;;5.93;100.00;98144.31;5026023;28;19921;-83
2023/11/04 00:14:40;;;;;;;;;;;;;;;5.87;100.00;98134.75;5026373;28;19922;-83
2023/11/04 00:17:08;;;;;;;;;;;;;;;5.87;100.00;98142.03;5011492;28;19928;-83
2023/11/04 00:19:41;;;;;;;;;;;;;;;5.79;100.00;98144.41;4990927;28;19922;-83
2023/11/04 00:22:10;;;;;;;;;;;;;;;5.77;100.00;98153.91;5025223;28;20024;-84
2023/11/04 00:24:39;;;;;;;;;;;;;;;5.72;100.00;98146.75;5021346;28;19928;-84
2023/11/04 00:27:07;;;;;;;;;;;;;;;5.72;100.00;98157.56;5012739;28;19936;-83
2023/11/04 00:29:41;;;;;;;;;;;;;;;5.74;100.00;98144.53;5023739;28;20419;-84
2023/11/04 00:32:09;;;;;;;;;;;;;;;5.62;100.00;98147.81;5027047;28;20298;-83
2023/11/04 00:34:37;;;;;;;;;;;;;;;5.58;100.00;98149.53;4991913;28;19926;-84
2023/11/04 00:37:10;;;;;;;;;;;;;;;5.51;100.00;98153.78;4993086;28;19921;-84
2023/11/04 00:39:38;;;;;;;;;;;;;;;5.52;100.00;98158.06;5026048;28;19922;-84
2023/11/04 00:42:07;;;;;;;;;;;;;;;5.45;100.00;98145.81;5010728;28;19936;-84
2023/11/04 00:44:40;;;;;;;;;;;;;;;5.43;100.00;98150.72;5008197;28;19929;-84
2023/11/04 00:47:14;;;;;;;;;;;;;;;5.51;100.00;98151.06;5016067;28;19921;-84
2023/11/04 00:49:47;;;;;;;;;;;;;;;5.43;100.00;98149.94;5014150;28;19925;-84
2023/11/04 00:52:15;;;;;;;;;;;;;;;5.37;100.00;98156.53;5015374;28;20681;-84
2023/11/04 00:54:48;;;;;;;;;;;;;;;5.27;100.00;98153.00;5034090;28;19925;-84
2023/11/04 00:57:16;;;;;;;;;;;;;;;5.26;100.00;98158.69;4994277;28;19929;-84
2023/11/04 00:59:44;;;;;;;;;;;;;;;5.28;100.00;98157.28;5015565;28;19936;-84
2023/11/04 01:02:18;;;;;;;;;;;;;;;5.25;100.00;98162.50;5012497;28;19925;-84
2023/11/04 01:04:46;;;;;;;;;;;;;;;5.21;100.00;98159.59;5011070;28;19921;-84
2023/11/04 01:07:19;;;;;;;;;;;;;;;5.21;100.00;98158.81;5030324;28;19921;-84
2023/11/04 01:09:52;;;;;;;;;;;;;;;5.25;100.00;98159.81;5011061;28;20370;-84
2023/11/04 01:12:25;;;;;;;;;;;;;;;5.19;100.00;98156.44;5014298;28;19929;-84
2023/11/04 01:14:53;;;;;;;;;;;;;;;5.16;100.00;98156.25;5016663;28;19928;-84
2023/11/04 01:17:23;;;;;;;;;;;;;;;5.14;100.00;98161.13;5015242;28;19921;-84
2023/11/04 01:19:51;;;;;;;;;;;;;;;5.07;100.00;98164.28;5014230;28;19921;-84
2023/11/04 01:22:24;;;;;;;;;;;;;;;5.11;100.00;98160.66;5016085;28;19921;-84
2023/11/04 01:24:52;;;;;;;;;;;;;;;5.09;100.00;98162.06;5030677;28;19945;-84
2023/11/04 01:27:20;;;;;;;;;;;;;;;5.08;100.00;98150.50;5030824;28;19921;-84
2023/11/04 01:29:53;;;;;;;;;;;;;;;4.96;100.00;98152.09;5014602;28;19921;-84
2023/11/04 01:32:22;;;;;;;;;;;;;;;5.08;100.00;98161.28;5028182;28;19922;-83
2023/11/04 01:34:50;;;;;;;;;;;;;;;5.07;100.00;98156.19;5030632;28;19929;-85
2023/11/04 01:37:19;;;;;;;;;;;;;;;5.04;100.00;98154.06;5028487;28;20259;-84
2023/11/04 01:39:47;;;;;;;;;;;;;;;5.10;100.00;98148.25;5032988;28;19921;-84
2023/11/04 01:42:21;;;;;;;;;;;;;;;5.05;100.00;98147.59;5010359;28;19992;-84
2023/11/04 01:44:53;;;;;;;;;;;;;;;5.01;100.00;98143.91;5026670;28;19925;-84
2023/11/04 01:47:23;;;;;;;;;;;;;;;5.01;100.00;98149.31;5012766;28;20423;-84
2023/11/04 01:49:56;;;;;;;;;;;;;;;5.01;100.00;98142.00;5000532;28;19925;-83
2023/11/04 01:52:29;;;;;;;;;;;;;;;5.01;100.00;98143.91;5014130;28;19930;-84
2023/11/04 01:55:02;;;;;;;;;;;;;;;5.00;100.00;98135.03;5029297;28;19922;-84
2023/11/04 01:57:31;;;;;;;;;;;;;;;4.99;100.00;98133.44;5014288;28;19925;-84
2023/11/04 01:59:59;;;;;;;;;;;;;;;4.87;100.00;98131.28;5015581;28;19929;-84
2023/11/04 02:02:28;;;;;;;;;;;;;;;4.91;100.00;98140.34;5013314;28;19928;-84
2023/11/04 02:04:57;;;;;;;;;;;;;;;4.88;100.00;98140.19;5007867;28;19933;-83
2023/11/04 02:07:25;;;;;;;;;;;;;;;4.77;100.00;98137.69;5033549;28;19922;-83
2023/11/04 02:09:53;;;;;;;;;;;;;;;4.77;100.00;98140.38;4996467;28;19936;-84
2023/11/04 02:12:26;;;;;;;;;;;;;;;4.79;100.00;98137.38;5028208;28;20139;-83
2023/11/04 02:14:54;;;;;;;;;;;;;;;4.79;100.00;98136.59;4986300;28;19933;-84
2023/11/04 02:17:28;;;;;;;;;;;;;;;4.77;100.00;98140.38;5013041;28;20486;-84
2023/11/04 02:20:00;;;;;;;;;;;;;;;4.71;100.00;98130.03;4986256;28;19932;-85
2023/11/04 02:22:35;;;;;;;;;;;;;;;4.67;100.00;98129.84;5006268;28;19929;-84
2023/11/04 02:25:03;;;;;;;;;;;;;;;4.64;100.00;98122.38;5014302;28;20293;-83
2023/11/04 02:27:31;;;;;;;;;;;;;;;4.60;100.00;98124.88;5029067;28;20011;-84
2023/11/04 02:30:05;;;;;;;;;;;;;;;4.62;100.00;98126.47;5027680;28;19929;-84
2023/11/04 02:32:33;;;;;;;;;;;;;;;4.50;100.00;98127.81;5031047;28;20278;-84
2023/11/04 02:35:06;;;;;;;;;;;;;;;4.50;100.00;98124.28;5013917;28;19922;-84
2023/11/04 02:37:35;;;;;;;;;;;;;;;4.56;100.00;98123.09;5022802;28;19920;-83
2023/11/04 02:40:05;;;;;;;;;;;;;;;4.48;100.00;98129.97;5018713;28;20317;-84
2023/11/04 02:42:33;;;;;;;;;;;;;;;4.50;100.00;98129.69;5011416;28;19921;-83
2023/11/04 02:45:06;;;;;;;;;;;;;;;4.48;100.00;98129.19;5014434;28;19921;-84
2023/11/04 02:47:40;;;;;;;;;;;;;;;4.47;100.00;98135.69;5014200;28;19921;-84
2023/11/04 02:50:13;;;;;;;;;;;;;;;4.44;100.00;98131.69;4995548;28;19928;-84
2023/11/04 02:52:47;;;;;;;;;;;;;;;4.38;100.00;98124.84;5024614;28;19929;-84
2023/11/04 02:55:20;;;;;;;;;;;;;;;4.47;100.00;98132.97;5014148;28;20026;-83
2023/11/04 02:57:48;;;;;;;;;;;;;;;4.44;100.00;98123.63;5004901;28;19928;-84
2023/11/04 03:00:21;;;;;;;;;;;;;;;4.35;100.00;98130.78;5026993;28;19929;-84
2023/11/04 03:02:49;;;;;;;;;;;;;;;4.34;100.00;98131.91;5004248;28;19933;-84
2023/11/04 03:05:22;;;;;;;;;;;;;;;4.38;100.00;98138.28;5012714;28;19929;-83
2023/11/04 03:07:56;;;;;;;;;;;;;;;4.35;100.00;98130.78;5015175;28;19922;-84
2023/11/04 03:10:30;;;;;;;;;;;;;;;4.35;100.00;98136.19;5027863;28;20871;-84
2023/11/04 03:12:57;;;;;;;;;;;;;;;4.30;100.00;98136.31;4994999;28;19921;-83
2023/11/04 03:15:26;;;;;;;;;;;;;;;4.32;100.00;98139.47;5028446;28;20745;-83
2023/11/04 03:17:54;;;;;;;;;;;;;;;4.28;100.00;98138.50;5028233;28;19936;-84
2023/11/04 03:20:22;;;;;;;;;;;;;;;4.18;100.00;98137.59;5012259;28;19921;-84
2023/11/04 03:22:50;;;;;;;;;;;;;;;4.20;100.00;98134.63;4993600;28;19932;-83
2023/11/04 03:25:20;;;;;;;;;;;;;;;4.20;100.00;98135.41;4993140;28;19922;-84
2023/11/04 03:27:47;;;;;;;;;;;;;;;4.21;100.00;98136.19;5009466;28;20386;-84
2023/11/04 03:30:22;;;;;;;;;;;;;;;4.20;100.00;98140.00;5010891;28;19921;-84
2023/11/04 03:32:50;;;;;;;;;;;;;;;4.18;100.00;98126.03;5000798;28;20289;-83
2023/11/04 03:35:23;;;;;;;;;;;;;;;4.09;100.00;98134.81;5026823;28;19925;-84
2023/11/04 03:37:51;;;;;;;;;;;;;;;4.11;100.00;98134.50;4987714;28;19922;-83
2023/11/04 03:40:25;;;;;;;;;;;;;;;4.15;100.00;98135.50;5013018;28;19921;-84
2023/11/04 03:42:58;;;;;;;;;;;;;;;4.16;100.00;98128.25;5027366;28;19921;-85
2023/11/04 03:45:26;;;;;;;;;;;;;;;4.11;100.00;98131.81;5009844;28;20300;-84
2023/11/04 03:47:54;;;;;;;;;;;;;;;4.09;100.00;98132.13;4993340;28;20302;-84
2023/11/04 03:50:22;;;;;;;;;;;;;;;4.05;100.00;98131.13;5027639;28;19922;-83
2023/11/04 03:52:50;;;;;;;;;;;;;;;4.09;100.00;98121.34;5011578;28;20277;-83
2023/11/04 03:55:19;;;;;;;;;;;;;;;4.03;100.00;98125.25;5013122;28;19944;-84
2023/11/04 03:57:48;;;;;;;;;;;;;;;4.01;100.00;98116.66;5026668;28;20411;-84
2023/11/04 04:00:21;;;;;;;;;;;;;;;4.04;100.00;98123.34;5027156;28;19925;-84
2023/11/04 04:02:49;;;;;;;;;;;;;;;4.03;100.00;98114.50;5010822;28;19921;-84
2023/11/04 04:05:22;;;;;;;;;;;;;;;4.03;100.00;98116.38;5013162;28;19928;-84
2023/11/04 04:07:55;;;;;;;;;;;;;;;3.99;100.00;98110.81;5034774;28;19929;-84
2023/11/04 04:10:23;;;;;;;;;;;;;;;4.00;100.00;98120.44;5028760;28;20345;-83
2023/11/04 04:12:52;;;;;;;;;;;;;;;4.03;100.00;98114.50;5026315;28;19932;-84
2023/11/04 04:15:20;;;;;;;;;;;;;;;3.91;100.00;98112.28;5008743;28;19933;-83
2023/11/04 04:17:48;;;;;;;;;;;;;;;3.96;100.00;98110.59;5011844;28;19921;-83
2023/11/04 04:20:21;;;;;;;;;;;;;;;3.88;100.00;98107.50;4995155;28;19932;-84
2023/11/04 04:22:49;;;;;;;;;;;;;;;3.91;100.00;98114.19;5011210;28;19925;-84
2023/11/04 04:25:22;;;;;;;;;;;;;;;3.82;100.00;98111.38;5002053;28;19929;-84
2023/11/04 04:27:51;;;;;;;;;;;;;;;3.81;100.00;98112.50;5026735;28;19948;-84
2023/11/04 04:30:20;;;;;;;;;;;;;;;3.72;100.00;98104.31;5009297;28;19921;-84
2023/11/04 04:32:48;;;;;;;;;;;;;;;3.70;100.00;98109.19;5013312;28;19929;-84
2023/11/04 04:35:16;;;;;;;;;;;;;;;3.68;100.00;98106.00;5012923;28;20277;-84
2023/11/04 04:37:44;;;;;;;;;;;;;;;3.64;100.00;98101.50;5017170;28;19922;-84
2023/11/04 04:40:13;;;;;;;;;;;;;;;3.65;100.00;98103.91;4984996;28;19937;-84
2023/11/04 04:42:46;;;;;;;;;;;;;;;3.66;100.00;98107.38;5025366;28;19921;-83
2023/11/04 04:45:15;;;;;;;;;;;;;;;3.61;100.00;98102.13;5024740;28;19926;-83
2023/11/04 04:47:43;;;;;;;;;;;;;;;3.61;100.00;98094.84;5026923;28;19928;-84
2023/11/04 04:50:16;;;;;;;;;;;;;;;3.62;100.00;98092.94;5024770;28;20032;-83
2023/11/04 04:52:50;;;;;;;;;;;;;;;3.56;100.00;98089.53;4994105;28;19928;-84
2023/11/04 04:55:23;;;;;;;;;;;;;;;3.53;100.00;98085.56;5012075;28;19925;-84
2023/11/04 04:57:56;;;;;;;;;;;;;;;3.50;100.00;98080.78;5009729;28;19928;-83
2023/11/04 05:00:30;;;;;;;;;;;;;;;3.45;100.00;98090.81;4984157;28;20301;-84
2023/11/04 05:03:05;;;;;;;;;;;;;;;3.48;100.00;98087.53;4999870;28;19925;-83
2023/11/04 05:05:38;;;;;;;;;;;;;;;3.45;100.00;98086.22;5014443;28;19926;-83
2023/11/04 05:08:11;;;;;;;;;;;;;;;3.45;100.00;98088.94;4995254;28;19925;-83
2023/11/04 05:10:39;;;;;;;;;;;;;;;3.43;100.00;98087.66;5006087;28;20631;-83
2023/11/04 05:13:07;;;;;;;;;;;;;;;3.41;100.00;98085.22;4989818;28;19929;-83
2023/11/04 05:15:36;;;;;;;;;;;;;;;3.40;100.00;98076.38;4999739;28;19921;-84
2023/11/04 05:18:09;;;;;;;;;;;;;;;3.36;100.00;98072.69;4991958;28;20258;-84
2023/11/04 05:20:42;;;;;;;;;;;;;;;3.37;100.00;98074.28;5002438;28;19928;-84
2023/11/04 05:23:11;;;;;;;;;;;;;;;3.36;100.00;98079.97;5018217;28;20401;-84
2023/11/04 05:25:39;;;;;;;;;;;;;;;3.28;100.00;98078.75;5009107;28;19944;-84
2023/11/04 05:28:07;;;;;;;;;;;;;;;3.31;100.00;98078.16;5010294;28;19922;-84
2023/11/04 05:30:37;;;;;;;;;;;;;;;3.28;100.00;98077.97;5012693;28;19928;-83
2023/11/04 05:33:09;;;;;;;;;;;;;;;3.16;100.00;98076.53;4996429;28;19921;-84
2023/11/04 05:35:37;;;;;;;;;;;;;;;3.25;100.00;98076.66;5010620;28;19929;-84
2023/11/04 05:38:05;;;;;;;;;;;;;;;3.20;100.00;98079.41;5025928;28;19925;-83
2023/11/04 05:40:38;;;;;;;;;;;;;;;3.15;100.00;98077.63;5029148;28;19928;-83
2023/11/04 05:43:06;;;;;;;;;;;;;;;3.15;100.00;98072.25;5012279;28;19922;-83
2023/11/04 05:45:34;;;;;;;;;;;;;;;3.19;100.00;98075.13;5015172;28;19921;-83
2023/11/04 05:48:04;;;;;;;;;;;;;;;3.14;100.00;98070.66;5015571;28;20297;-84
2023/11/04 05:50:31;;;;;;;;;;;;;;;3.15;100.00;98079.50;5030634;28;19921;-83
2023/11/04 05:52:59;;;;;;;;;;;;;;;3.14;100.00;98078.72;5013681;28;19925;-84
2023/11/04 05:55:32;;;;;;;;;;;;;;;3.13;100.00;98079.00;5030815;28;19922;-83
2023/11/04 05:58:01;;;;;;;;;;;;;;;3.17;100.00;98075.44;5014548;28;19948;-83
2023/11/04 06:00:29;;;;;;;;;;;;;;;3.16;100.00;98075.72;4998704;28;20289;-84
2023/11/04 06:02:57;;;;;;;;;;;;;;;3.12;100.00;98075.53;5026630;28;20404;-83
2023/11/04 06:05:31;;;;;;;;;;;;;;;3.11;100.00;98067.75;5012025;28;19922;-83
2023/11/04 06:08:05;;;;;;;;;;;;;;;3.16;100.00;98075.72;5032173;28;19925;-84
2023/11/04 06:10:33;;;;;;;;;;;;;;;3.13;100.00;98073.63;5031803;28;19929;-84
2023/11/04 06:13:01;;;;;;;;;;;;;;;3.13;100.00;98071.75;5030452;28;20006;-84
2023/11/04 06:15:29;;;;;;;;;;;;;;;3.09;100.00;98075.31;5019088;28;19921;-84
2023/11/04 06:17:56;;;;;;;;;;;;;;;3.12;100.00;98074.72;5016010;28;19925;-83
2023/11/04 06:20:24;;;;;;;;;;;;;;;3.10;100.00;98072.34;5029921;28;19925;-84
2023/11/04 06:22:59;;;;;;;;;;;;;;;3.09;100.00;98064.56;5025944;28;19925;-84
2023/11/04 06:25:27;;;;;;;;;;;;;;;3.14;100.00;98070.66;4991362;28;19929;-84
2023/11/04 06:27:55;;;;;;;;;;;;;;;3.03;100.00;98070.03;5028565;28;19921;-84
2023/11/04 06:30:28;;;;;;;;;;;;;;;3.01;100.00;98074.09;5026424;28;19921;-84
2023/11/04 06:33:01;;;;;;;;;;;;;;;2.99;100.00;98077.06;5014363;28;19925;-84
2023/11/04 06:35:29;;;;;;;;;;;;;;;2.96;100.00;98063.44;5012087;28;20530;-84
2023/11/04 06:38:04;;;;;;;;;;;;;;;2.94;100.00;98060.25;5007104;28;19929;-84
2023/11/04 06:40:38;;;;;;;;;;;;;;;2.96;100.00;98056.19;5032765;28;19921;-84
2023/11/04 06:43:06;;;;;;;;;;;;;;;2.97;100.00;98063.16;5027980;28;19921;-84
2023/11/04 06:45:39;;;;;;;;;;;;;;;2.98;100.00;98053.19;4995238;28;19928;-84
2023/11/04 06:48:07;;;;;;;;;;;;;;;2.97;100.00;98049.72;5003048;28;20327;-84
2023/11/04 06:50:40;;;;;;;;;;;;;;;3.03;100.00;98045.84;5021395;28;20388;-84
2023/11/04 06:53:09;;;;;;;;;;;;;;;3.06;100.00;98042.56;5006937;28;19921;-84
2023/11/04 06:55:42;;;;;;;;;;;;;;;2.99;100.00;98050.22;5014694;28;19944;-84
2023/11/04 06:58:10;;;;;;;;;;;;;;;3.02;100.00;98046.91;5028348;28;19922;-84
2023/11/04 07:00:43;;;;;;;;;;;;;;;3.02;100.00;98056.88;5011418;28;19925;-84
2023/11/04 07:03:11;;;;;;;;;;;;;;;2.98;100.00;98043.22;5008056;28;19921;-84
2023/11/04 07:05:44;;;;;;;;;;;;;;;3.04;100.00;98046.66;5028861;28;19929;-83
2023/11/04 07:08:14;;;;;;;;;;;;;;;3.00;100.00;98043.75;5014041;28;20293;-84
2023/11/04 07:10:42;;;;;;;;;;;;;;;3.06;100.00;98039.09;5028768;28;20551;-83
2023/11/04 07:13:15;;;;;;;;;;;;;;;3.11;100.00;98043.56;5012021;28;20399;-84
2023/11/04 07:15:44;;;;;;;;;;;;;;;3.18;100.00;98047.47;5027313;28;19921;-84
2023/11/04 07:18:17;;;;;;;;;;;;;;;3.20;100.00;98049.84;5015522;28;19921;-85
2023/11/04 07:20:47;;;;;;;;;;;;;;;3.23;100.00;98041.19;5023052;28;19921;-84
2023/11/04 07:23:21;;;;;;;;;;;;;;;3.25;100.00;98039.03;5002958;28;20409;-84
2023/11/04 07:25:55;;;;;;;;;;;;;;;3.32;100.00;98041.34;4993644;28;20689;-84
2023/11/04 07:28:23;;;;;;;;;;;;;;;3.33;100.00;98034.84;5018010;28;19921;-84
2023/11/04 07:30:51;;;;;;;;;;;;;;;3.35;100.00;98038.03;5013596;28;19921;-84
2023/11/04 07:33:24;;;;;;;;;;;;;;;3.35;100.00;98029.97;5011676;28;20708;-84
2023/11/04 07:35:52;;;;;;;;;;;;;;;3.42;100.00;98034.97;5028371;28;19921;-84
2023/11/04 07:38:21;;;;;;;;;;;;;;;3.46;100.00;98031.38;5017201;28;19928;-84
2023/11/04 07:40:54;;;;;;;;;;;;;;;3.51;100.00;98027.81;5027016;28;19932;-84
2023/11/04 07:43:22;;;;;;;;;;;;;;;3.52;100.00;98035.56;5012580;28;20373;-85
2023/11/04 07:45:55;;;;;;;;;;;;;;;3.54;100.00;98028.00;5010009;28;19925;-84
2023/11/04 07:48:29;;;;;;;;;;;;;;;3.65;100.00;98025.13;5013101;28;19921;-84
2023/11/04 07:51:02;;;;;;;;;;;;;;;3.71;100.00;98016.63;5001995;28;19922;-84
2023/11/04 07:53:36;;;;;;;;;;;;;;;3.72;100.00;98010.16;5028974;28;19925;-84
2023/11/04 07:56:05;;;;;;;;;;;;;;;3.79;100.00;98008.97;5029140;28;19925;-84
2023/11/04 07:58:33;;;;;;;;;;;;;;;3.83;100.00;98008.06;4991455;28;19921;-84
2023/11/04 08:01:06;;;;;;;;;;;;;;;3.88;100.00;98002.56;4993022;28;20332;-84
2023/11/04 08:03:39;;;;;;;;;;;;;;;3.95;100.00;98001.34;5010572;28;19921;-84
2023/11/04 08:06:07;;;;;;;;;;;;;;;4.02;100.00;98007.94;5010958;28;19922;-83
2023/11/04 08:08:36;;;;;;;;;;;;;;;4.03;100.00;97993.38;5030767;28;19925;-83
2023/11/04 08:11:05;;;;;;;;;;;;;;;4.04;100.00;97994.16;5006930;28;20305;-84
2023/11/04 08:13:38;;;;;;;;;;;;;;;4.08;100.00;97987.88;5011836;28;19944;-84
2023/11/04 08:16:06;;;;;;;;;;;;;;;4.15;100.00;97990.16;5012697;28;19925;-84
2023/11/04 08:18:40;;;;;;;;;;;;;;;4.22;100.00;97976.28;5028094;28;19921;-84
2023/11/04 08:21:14;;;;;;;;;;;;;;;4.32;100.00;97984.09;5011932;28;19928;-84
2023/11/04 08:23:44;;;;;;;;;;;;;;;4.32;100.00;97986.00;5004746;28;20994;-83
2023/11/04 08:26:12;;;;;;;;;;;;;;;4.40;100.00;97983.38;5027465;28;19922;-83
2023/11/04 08:28:44;;;;;;;;;;;;;;;4.48;100.00;97975.69;5029443;28;19925;-84
2023/11/04 08:31:13;;;;;;;;;;;;;;;4.53;100.00;97972.84;4992285;28;19921;-85
2023/11/04 08:33:48;;;;;;;;;;;;;;;4.67;100.00;97973.59;5010813;28;19932;-83
2023/11/04 08:36:16;;;;;;;;;;;;;;;4.79;100.00;97969.53;5010509;28;19925;-82
2023/11/04 08:38:50;;;;;;;;;;;;;;;4.90;100.00;97968.19;5008390;28;19922;-81
2023/11/04 08:41:23;;;;;;;;;;;;;;;5.09;100.00;97967.97;4989104;28;19921;-83
2023/11/04 08:43:56;;;;;;;;;;;;;;;5.29;100.00;97966.63;5007421;28;19929;-83
2023/11/04 08:46:29;;;;;;;;;;;;;;;5.44;100.00;97960.81;5023295;28;19925;-82
2023/11/04 08:48:57;;;;;;;;;;;;;;;5.55;100.00;97955.94;4994358;28;19925;-83
2023/11/04 08:51:25;;;;;;;;;;;;;;;5.64;100.00;97953.25;5011362;28;19945;-83
2023/11/04 08:53:54;;;;;;;;;;;;;;;5.71;100.00;97955.47;5021921;28;19921;-83
2023/11/04 08:56:27;;;;;;;;;;;;;;;5.72;100.00;97955.16;5003143;28;19932;-83
2023/11/04 08:59:00;;;;;;;;;;;;;;;5.69;100.00;97963.09;5023687;28;19921;-83
2023/11/04 09:01:33;;;;;;;;;;;;;;;5.83;100.00;97955.66;5002207;28;19937;-84
2023/11/04 09:04:01;;;;;;;;;;;;;;;5.94;100.00;97956.16;5024552;28;19926;-83
2023/11/04 09:06:30;;;;;;;;;;;;;;;6.06;100.00;97952.84;5010251;28;19929;-82
2023/11/04 09:09:00;;;;;;;;;;;;;;;6.10;100.00;97961.91;5014401;28;19922;-83
2023/11/04 09:11:28;;;;;;;;;;;;;;;6.15;100.00;97955.56;5007345;28;19921;-83
2023/11/04 09:13:56;;;;;;;;;;;;;;;6.24;100.00;97951.75;5011081;28;20388;-83
2023/11/04 09:16:24;;;;;;;;;;;;;;;6.34;100.00;97947.13;5008812;28;19921;-82
2023/11/04 09:18:52;;;;;;;;;;;;;;;6.45;100.00;97953.81;4995605;28;19922;-83
2023/11/04 09:21:20;;;;;;;;;;;;;;;6.59;100.00;97950.94;5023522;28;20313;-82
2023/11/04 09:23:53;;;;;;;;;;;;;;;6.74;100.00;97947.72;5010141;28;20301;-81
2023/11/04 09:26:28;;;;;;;;;;;;;;;6.93;100.00;97946.53;5005511;28;20301;-82
2023/11/04 09:29:02;;;;;;;;;;;;;;;7.05;100.00;97946.66;5026397;28;19921;-82
2023/11/04 09:31:30;;;;;;;;;;;;;;;7.16;100.00;97957.94;5013513;28;19928;-82
2023/11/04 09:33:58;;;;;;;;;;;;;;;7.28;100.00;97954.56;5008660;28;19929;-83
2023/11/04 09:36:26;;;;;;;;;;;;;;;7.37;100.00;97951.81;5027615;28;19929;-83
2023/11/04 09:38:59;;;;;;;;;;;;;;;7.60;100.00;97957.75;5012544;28;19922;-82
2023/11/04 09:41:33;;;;;;;;;;;;;;;7.78;100.00;97950.31;5006560;28;20309;-81
2023/11/04 09:44:06;;;;;;;;;;;;;;;7.75;100.00;97950.97;5009002;28;19926;-82
2023/11/04 09:46:39;;;;;;;;;;;;;;;7.78;100.00;97945.69;5013409;28;19926;-83
2023/11/04 09:49:12;;;;;;;;;;;;;;;7.75;100.00;97950.97;5011217;28;19933;-82
2023/11/04 09:51:46;;;;;;;;;;;;;;;7.78;100.00;97950.31;5024434;28;19922;-82
2023/11/04 09:54:14;;;;;;;;;;;;;;;7.75;100.00;97950.97;4992718;28;19929;-82
2023/11/04 09:56:49;;;;;;;;;;;;;;;7.74;100.00;97942.03;5010750;28;19940;-82
2023/11/04 09:59:21;;;;;;;;;;;;;;;7.73;100.00;97936.97;5024412;28;20305;-83
2023/11/04 10:01:49;;;;;;;;;;;;;;;7.73;100.00;97932.31;5010884;28;20266;-82
2023/11/04 10:04:17;;;;;;;;;;;;;;;7.80;100.00;97938.03;5010114;28;19928;-81
2023/11/04 10:06:46;;;;;;;;;;;;;;;7.86;100.00;97932.41;5021133;28;19925;-82
2023/11/04 10:09:14;;;;;;;;;;;;;;;7.87;100.00;97931.28;5008955;28;19925;-82
2023/11/04 10:11:48;;;;;;;;;;;;;;;7.86;100.00;97930.50;5027557;28;19921;-82
2023/11/04 10:14:21;;;;;;;;;;;;;;;7.92;100.00;97931.09;5028433;28;19921;-81
2023/11/04 10:16:54;;;;;;;;;;;;;;;7.83;100.00;97926.53;5028900;28;19921;-81
2023/11/04 10:19:22;;;;;;;;;;;;;;;7.92;100.00;97931.88;5015377;28;19921;-82
2023/11/04 10:21:50;;;;;;;;;;;;;;;7.89;100.00;97934.47;5000541;28;20552;-82
2023/11/04 10:24:23;;;;;;;;;;;;;;;7.92;100.00;97931.88;5013280;28;19928;-82
2023/11/04 10:26:57;;;;;;;;;;;;;;;7.93;100.00;97927.28;5018579;28;20540;-84
2023/11/04 10:29:31;;;;;;;;;;;;;;;7.88;100.00;97924.75;5010431;28;19932;-85
2023/11/04 10:32:03;;;;;;;;;;;;;;;7.99;100.00;97928.66;4995462;28;19936;-84
2023/11/04 10:34:32;;;;;;;;;;;;;;;7.98;100.00;97927.88;5015905;28;19921;-85
2023/11/04 10:37:05;;;;;;;;;;;;;;;8.01;100.00;97921.00;5027655;28;19922;-84
2023/11/04 10:39:34;;;;;;;;;;;;;;;8.10;100.00;97918.22;5030695;28;19944;-84
2023/11/04 10:42:10;;;;;;;;;;;;;;;8.13;100.00;97921.06;5014007;28;19921;-85
2023/11/04 10:44:40;;;;;;;;;;;;;;;8.18;100.00;97909.22;5007629;28;19921;-85
2023/11/04 10:47:12;;;;;;;;;;;;;;;8.25;100.00;97906.00;5014292;28;19929;-84
2023/11/04 10:49:46;;;;;;;;;;;;;;;8.28;100.00;97900.69;5029887;28;19925;-85
2023/11/04 10:52:20;;;;;;;;;;;;;;;8.32;100.00;97898.09;5027528;28;19929;-84
2023/11/04 10:54:49;;;;;;;;;;;;;;;8.29;100.00;97899.56;5013319;28;19928;-85
2023/11/04 10:57:26;;;;;;;;;;;;;;;8.27;100.00;97895.59;5028388;28;20408;-86
2023/11/04 11:00:06;;;;;;;;;;;;;;;8.39;100.00;97886.72;4996084;28;19921;-86
2023/11/04 11:02:36;;;;;;;;;;;;;;;8.45;100.00;97882.69;5026739;28;19928;-85
2023/11/04 11:05:05;;;;;;;;;;;;;;;8.50;100.00;97875.16;5009940;28;19921;-85
2023/11/04 11:07:39;;;;;;;;;;;;;;;8.56;100.00;97874.94;5014907;28;20024;-85
2023/11/04 11:10:13;;;;;;;;;;;;;;;8.58;100.00;97870.78;5027958;28;19949;-83
2023/11/04 11:12:46;;;;;;;;;;;;;;;8.60;100.00;97868.50;5007602;28;20509;-82
2023/11/04 11:15:14;;;;;;;;;;;;;;;8.67;100.00;97867.97;5027369;28;20044;-83
2023/11/04 11:17:42;;;;;;;;;;;;;;;8.67;100.00;97870.66;5026552;28;19925;-82
2023/11/04 11:20:27;;;;;;;;;;;;;;;8.60;100.00;97865.78;5011382;28;19921;-82
2023/11/04 11:22:56;;;;;;;;;;;;;;;8.50;100.00;97860.81;5026453;28;20333;-81
2023/11/04 11:25:31;;;;;;;;;;;;;;;8.36;100.00;97857.59;4960215;28;19921;-81
2023/11/04 11:28:16;;;;;;;;;;;;;;;8.38;100.00;97856.13;5008468;28;19925;-82
2023/11/04 11:30:44;;;;;;;;;;;;;;;8.39;100.00;97857.72;5022938;28;19921;-82
2023/11/04 11:33:14;;;;;;;;;;;;;;;8.41;100.00;97854.66;5011682;28;19944;-82
2023/11/04 11:35:52;;;;;;;;;;;;;;;8.42;100.00;97851.59;5012732;28;19940;-81
2023/11/04 11:38:20;;;;;;;;;;;;;;;8.48;100.00;97850.31;5008182;28;20326;-81
2023/11/04 11:40:48;;;;;;;;;;;;;;;8.54;100.00;97853.59;5025075;28;19928;-81
2023/11/04 11:43:19;;;;;;;;;;;;;;;8.60;100.00;97860.38;5008143;28;19933;-80
2023/11/04 11:45:47;;;;;;;;;;;;;;;8.59;100.00;97855.28;5010659;28;19929;-81
2023/11/04 11:48:21;;;;;;;;;;;;;;;8.65;100.00;97862.88;4988263;28;19922;-82
2023/11/04 11:50:54;;;;;;;;;;;;;;;8.74;100.00;97846.53;5006124;28;19933;-80
2023/11/04 11:53:22;;;;;;;;;;;;;;;8.84;100.00;97859.63;5025508;28;19929;-80
2023/11/04 11:55:58;;;;;;;;;;;;;;;8.95;100.00;97851.03;4987563;28;19925;-80
2023/11/04 11:58:33;;;;;;;;;;;;;;;8.96;100.00;97849.91;5002696;28;19925;-79
2023/11/04 12:01:04;;;;;;;;;;;;;;;9.00;100.00;97846.22;5009119;28;19922;-79
2023/11/04 12:03:37;;;;;;;;;;;;;;;9.10;100.00;97841.44;5004429;28;19925;-80
2023/11/04 12:06:11;;;;;;;;;;;;;;;9.17;100.00;97830.84;5023952;28;19932;-82
2023/11/04 12:08:46;;;;;;;;;;;;;;;9.15;100.00;97833.88;5010507;28;20596;-80
2023/11/04 12:11:19;;;;;;;;;;;;;;;9.09;100.00;97824.38;5011954;28;19932;-81
2023/11/04 12:13:54;;;;;;;;;;;;;;;9.09;100.00;97829.03;5026331;28;19929;-79
2023/11/04 12:16:27;;;;;;;;;;;;;;;9.10;100.00;97825.97;5010421;28;19921;-80
2023/11/04 12:19:01;;;;;;;;;;;;;;;9.08;100.00;97817.38;5008593;28;19921;-80
2023/11/04 12:21:29;;;;;;;;;;;;;;;9.09;100.00;97815.47;5009953;28;19928;-80
2023/11/04 12:24:04;;;;;;;;;;;;;;;9.06;100.00;97814.22;5024255;28;19933;-81
2023/11/04 12:26:32;;;;;;;;;;;;;;;9.03;100.00;97806.75;5009687;28;19948;-82
2023/11/04 12:29:06;;;;;;;;;;;;;;;8.97;100.00;97805.41;5024506;28;20308;-81
2023/11/04 12:31:34;;;;;;;;;;;;;;;8.94;100.00;97800.66;5009807;28;19944;-80
2023/11/04 12:34:03;;;;;;;;;;;;;;;8.93;100.00;97797.13;5006982;28;19922;-81
2023/11/04 12:36:36;;;;;;;;;;;;;;;8.89;100.00;97790.03;5008277;28;19922;-81
2023/11/04 12:39:09;;;;;;;;;;;;;;;8.91;100.00;97799.41;5007681;28;19925;-80
2023/11/04 12:41:42;;;;;;;;;;;;;;;8.92;100.00;97792.88;5009046;28;20281;-81
2023/11/04 12:44:17;;;;;;;;;;;;;;;8.91;100.00;97785.84;5004382;28;19921;-81
2023/11/04 12:46:50;;;;;;;;;;;;;;;8.87;100.00;97784.16;5013198;28;19925;-81
2023/11/04 12:49:23;;;;;;;;;;;;;;;8.87;100.00;97790.38;5012459;28;19936;-81
2023/11/04 12:51:55;;;;;;;;;;;;;;;8.90;100.00;97778.84;4989994;28;19925;-82
2023/11/04 12:54:28;;;;;;;;;;;;;;;8.82;100.00;97777.84;5031458;28;19921;-82
2023/11/04 12:57:01;;;;;;;;;;;;;;;8.86;100.00;97769.81;5029802;28;19925;-83
2023/11/04 12:59:31;;;;;;;;;;;;;;;8.78;100.00;97771.50;5033291;28;19921;-83
2023/11/04 13:01:59;;;;;;;;;;;;;;;8.77;100.00;97763.69;5029569;28;19932;-82
2023/11/04 13:04:27;;;;;;;;;;;;;;;8.84;100.00;97766.66;5005185;28;19922;-82
2023/11/04 13:06:55;;;;;;;;;;;;;;;8.82;100.00;97766.19;4995819;28;19921;-83